sensor_id;sensor_type;location;lat;lon;timestamp;temperature;humidity
16625;DHT22;8426;48.496;9.098;2023-04-16T00:03:12;6.70;99.90
16625;DHT22;8426;48.496;9.098;2023-04-16T00:08:17;6.70;99.90
16625;DHT22;8426;48.496;9.098;2023-04-16T00:13:21;6.70;99.90
16625;DHT22;8426;48.496;9.098;2023-04-16T00:18:24;6.70;99.90
16625;DHT22;8426;48.496;9.098;2023-04-16T00:23:30;6.70;99.90
16625;DHT22;8426;48.496;9.098;2023-04-16T00:28:33;6.70;99.90
16625;DHT22;8426;48.496;9.098;2023-04-16T00:33:43;6.70;99.90
16625;DHT22;8426;48.496;9.098;2023-04-16T00:38:48;6.70;99.90
16625;DHT22;8426;48.496;9.098;2023-04-16T00:43:52;6.60;99.90
16625;DHT22;8426;48.496;9.098;2023-04-16T00:48:55;6.60;99.90
16625;DHT22;8426;48.496;9.098;2023-04-16T00:54:02;6.60;99.90
16625;DHT22;8426;48.496;9.098;2023-04-16T00:59:06;6.60;99.90
16625;DHT22;8426;48.496;9.098;2023-04-16T01:04:09;6.60;99.90
16625;DHT22;8426;48.496;9.098;2023-04-16T01:09:16;6.60;99.90
16625;DHT22;8426;48.496;9.098;2023-04-16T01:14:19;6.60;99.90
16625;DHT22;8426;48.496;9.098;2023-04-16T01:19:23;6.60;99.90
16625;DHT22;8426;48.496;9.098;2023-04-16T01:24:28;6.60;99.90
16625;DHT22;8426;48.496;9.098;2023-04-16T01:29:32;6.60;99.90
16625;DHT22;8426;48.496;9.098;2023-04-16T01:34:36;6.70;99.90
16625;DHT22;8426;48.496;9.098;2023-04-16T01:39:40;6.60;99.90
16625;DHT22;8426;48.496;9.098;2023-04-16T01:44:46;6.60;99.90
16625;DHT22;8426;48.496;9.098;2023-04-16T01:49:49;6.60;99.90
16625;DHT22;8426;48.496;9.098;2023-04-16T01:54:57;6.60;99.90
16625;DHT22;8426;48.496;9.098;2023-04-16T02:00:24;6.60;99.90
16625;DHT22;8426;48.496;9.098;2023-04-16T02:05:27;6.60;99.90
16625;DHT22;8426;48.496;9.098;2023-04-16T02:10:33;6.60;99.90
16625;DHT22;8426;48.496;9.098;2023-04-16T02:15:37;6.60;99.90
16625;DHT22;8426;48.496;9.098;2023-04-16T02:20:40;6.60;99.90
16625;DHT22;8426;48.496;9.098;2023-04-16T02:25:46;6.60;99.90
16625;DHT22;8426;48.496;9.098;2023-04-16T02:30:50;6.60;99.90
16625;DHT22;8426;48.496;9.098;2023-04-16T02:35:53;6.60;99.90
16625;DHT22;8426;48.496;9.098;2023-04-16T02:40:58;6.60;99.90
16625;DHT22;8426;48.496;9.098;2023-04-16T02:46:02;6.60;99.90
16625;DHT22;8426;48.496;9.098;2023-04-16T02:51:05;6.60;99.90
16625;DHT22;8426;48.496;9.098;2023-04-16T02:56:10;6.50;99.90
16625;DHT22;8426;48.496;9.098;2023-04-16T03:01:14;6.60;99.90
16625;DHT22;8426;48.496;9.098;2023-04-16T03:06:19;6.50;99.90
16625;DHT22;8426;48.496;9.098;2023-04-16T03:11:24;6.50;99.90
16625;DHT22;8426;48.496;9.098;2023-04-16T03:16:28;6.50;99.90
16625;DHT22;8426;48.496;9.098;2023-04-16T03:21:34;6.50;99.90
16625;DHT22;8426;48.496;9.098;2023-04-16T03:26:40;6.50;99.90
16625;DHT22;8426;48.496;9.098;2023-04-16T03:31:46;6.60;99.90
16625;DHT22;8426;48.496;9.098;2023-04-16T03:36:49;6.50;99.90
16625;DHT22;8426;48.496;9.098;2023-04-16T03:41:57;6.50;99.90
16625;DHT22;8426;48.496;9.098;2023-04-16T03:47:02;6.50;99.90
16625;DHT22;8426;48.496;9.098;2023-04-16T03:52:07;6.50;99.90
16625;DHT22;8426;48.496;9.098;2023-04-16T03:57:13;6.60;99.90
16625;DHT22;8426;48.496;9.098;2023-04-16T04:02:17;6.50;99.90
16625;DHT22;8426;48.496;9.098;2023-04-16T04:07:20;6.50;99.90
16625;DHT22;8426;48.496;9.098;2023-04-16T04:12:25;6.50;99.90
16625;DHT22;8426;48.496;9.098;2023-04-16T04:17:28;6.50;99.90
16625;DHT22;8426;48.496;9.098;2023-04-16T04:22:33;6.50;99.90
16625;DHT22;8426;48.496;9.098;2023-04-16T04:27:38;6.50;99.90
16625;DHT22;8426;48.496;9.098;2023-04-16T04:32:41;6.40;99.90
16625;DHT22;8426;48.496;9.098;2023-04-16T04:37:46;6.50;99.90
16625;DHT22;8426;48.496;9.098;2023-04-16T04:42:51;6.50;99.90
16625;DHT22;8426;48.496;9.098;2023-04-16T04:47:55;6.50;99.90
16625;DHT22;8426;48.496;9.098;2023-04-16T04:52:58;6.40;99.90
16625;DHT22;8426;48.496;9.098;2023-04-16T04:58:04;6.50;99.90
16625;DHT22;8426;48.496;9.098;2023-04-16T05:03:10;6.50;99.90
16625;DHT22;8426;48.496;9.098;2023-04-16T05:08:15;6.50;99.90
16625;DHT22;8426;48.496;9.098;2023-04-16T05:13:19;6.50;99.90
16625;DHT22;8426;48.496;9.098;2023-04-16T05:18:23;6.50;99.90
16625;DHT22;8426;48.496;9.098;2023-04-16T05:23:29;6.50;99.90
16625;DHT22;8426;48.496;9.098;2023-04-16T05:28:34;6.50;99.90
16625;DHT22;8426;48.496;9.098;2023-04-16T05:33:37;6.50;99.90
16625;DHT22;8426;48.496;9.098;2023-04-16T05:38:42;6.60;99.90
16625;DHT22;8426;48.496;9.098;2023-04-16T05:43:46;6.60;99.90
16625;DHT22;8426;48.496;9.098;2023-04-16T05:48:51;6.60;99.90
16625;DHT22;8426;48.496;9.098;2023-04-16T05:53:55;6.60;99.90
16625;DHT22;8426;48.496;9.098;2023-04-16T05:59:00;6.60;99.90
16625;DHT22;8426;48.496;9.098;2023-04-16T06:04:05;6.70;99.90
16625;DHT22;8426;48.496;9.098;2023-04-16T06:09:09;6.70;99.90
16625;DHT22;8426;48.496;9.098;2023-04-16T06:14:14;6.70;99.90
16625;DHT22;8426;48.496;9.098;2023-04-16T06:19:18;6.70;99.90
16625;DHT22;8426;48.496;9.098;2023-04-16T06:24:21;6.70;99.90
16625;DHT22;8426;48.496;9.098;2023-04-16T06:29:26;6.60;99.90
16625;DHT22;8426;48.496;9.098;2023-04-16T06:34:42;6.60;99.90
16625;DHT22;8426;48.496;9.098;2023-04-16T06:39:45;6.50;99.90
16625;DHT22;8426;48.496;9.098;2023-04-16T06:44:50;6.60;99.90
16625;DHT22;8426;48.496;9.098;2023-04-16T06:49:54;6.70;99.90
16625;DHT22;8426;48.496;9.098;2023-04-16T06:54:57;6.60;99.90
16625;DHT22;8426;48.496;9.098;2023-04-16T07:00:03;6.70;99.90
16625;DHT22;8426;48.496;9.098;2023-04-16T07:05:07;6.70;99.90
16625;DHT22;8426;48.496;9.098;2023-04-16T07:10:12;6.70;99.90
16625;DHT22;8426;48.496;9.098;2023-04-16T07:15:17;6.70;99.90
16625;DHT22;8426;48.496;9.098;2023-04-16T07:20:20;6.70;99.90
16625;DHT22;8426;48.496;9.098;2023-04-16T07:25:25;6.70;99.90
16625;DHT22;8426;48.496;9.098;2023-04-16T07:30:30;6.80;99.90
16625;DHT22;8426;48.496;9.098;2023-04-16T07:35:35;6.80;99.90
16625;DHT22;8426;48.496;9.098;2023-04-16T07:40:39;6.80;99.90
16625;DHT22;8426;48.496;9.098;2023-04-16T07:45:46;6.80;99.90
16625;DHT22;8426;48.496;9.098;2023-04-16T07:51:15;7.00;99.90
16625;DHT22;8426;48.496;9.098;2023-04-16T07:56:20;7.00;99.90
16625;DHT22;8426;48.496;9.098;2023-04-16T08:01:25;7.10;99.90
16625;DHT22;8426;48.496;9.098;2023-04-16T08:06:28;7.20;99.90
16625;DHT22;8426;48.496;9.098;2023-04-16T08:11:32;7.30;99.90
16625;DHT22;8426;48.496;9.098;2023-04-16T08:16:38;7.40;99.90
16625;DHT22;8426;48.496;9.098;2023-04-16T08:21:45;7.30;99.90
16625;DHT22;8426;48.496;9.098;2023-04-16T08:26:49;7.40;99.90
16625;DHT22;8426;48.496;9.098;2023-04-16T08:31:54;7.30;99.90
16625;DHT22;8426;48.496;9.098;2023-04-16T08:36:57;7.30;99.90
16625;DHT22;8426;48.496;9.098;2023-04-16T08:42:03;7.20;99.90
16625;DHT22;8426;48.496;9.098;2023-04-16T08:47:08;7.30;99.90
16625;DHT22;8426;48.496;9.098;2023-04-16T08:52:17;7.20;99.90
16625;DHT22;8426;48.496;9.098;2023-04-16T08:57:28;7.30;99.90
16625;DHT22;8426;48.496;9.098;2023-04-16T09:02:35;7.30;99.90
16625;DHT22;8426;48.496;9.098;2023-04-16T09:07:40;7.40;99.90
16625;DHT22;8426;48.496;9.098;2023-04-16T09:12:44;7.50;99.90
16625;DHT22;8426;48.496;9.098;2023-04-16T09:17:49;7.50;99.90
16625;DHT22;8426;48.496;9.098;2023-04-16T09:22:54;7.70;99.90
16625;DHT22;8426;48.496;9.098;2023-04-16T09:28:00;7.80;99.90
16625;DHT22;8426;48.496;9.098;2023-04-16T09:33:16;8.10;99.90
16625;DHT22;8426;48.496;9.098;2023-04-16T09:38:23;8.40;99.90
16625;DHT22;8426;48.496;9.098;2023-04-16T09:43:28;8.50;99.90
16625;DHT22;8426;48.496;9.098;2023-04-16T09:48:33;8.60;99.90
16625;DHT22;8426;48.496;9.098;2023-04-16T09:53:37;8.80;99.90
16625;DHT22;8426;48.496;9.098;2023-04-16T09:58:40;8.90;99.90
16625;DHT22;8426;48.496;9.098;2023-04-16T10:03:48;8.60;99.90
16625;DHT22;8426;48.496;9.098;2023-04-16T10:08:53;8.70;99.90
16625;DHT22;8426;48.496;9.098;2023-04-16T10:13:58;8.60;99.90
16625;DHT22;8426;48.496;9.098;2023-04-16T10:19:04;8.80;99.90
16625;DHT22;8426;48.496;9.098;2023-04-16T10:24:11;9.00;99.90
16625;DHT22;8426;48.496;9.098;2023-04-16T10:29:20;8.70;99.90
16625;DHT22;8426;48.496;9.098;2023-04-16T10:34:25;8.50;99.90
16625;DHT22;8426;48.496;9.098;2023-04-16T10:39:30;8.40;99.90
16625;DHT22;8426;48.496;9.098;2023-04-16T10:44:35;8.40;99.90
16625;DHT22;8426;48.496;9.098;2023-04-16T10:49:40;8.50;99.90
16625;DHT22;8426;48.496;9.098;2023-04-16T10:54:45;8.50;99.90
16625;DHT22;8426;48.496;9.098;2023-04-16T10:59:50;8.50;99.90
16625;DHT22;8426;48.496;9.098;2023-04-16T11:04:56;8.50;99.90
16625;DHT22;8426;48.496;9.098;2023-04-16T11:10:02;8.40;99.90
16625;DHT22;8426;48.496;9.098;2023-04-16T11:15:08;8.50;99.90
16625;DHT22;8426;48.496;9.098;2023-04-16T11:20:17;8.30;99.90
16625;DHT22;8426;48.496;9.098;2023-04-16T11:25:23;8.10;99.90
16625;DHT22;8426;48.496;9.098;2023-04-16T11:30:29;8.00;99.90
16625;DHT22;8426;48.496;9.098;2023-04-16T11:35:38;7.90;99.90
16625;DHT22;8426;48.496;9.098;2023-04-16T11:40:42;7.90;99.90
16625;DHT22;8426;48.496;9.098;2023-04-16T11:45:55;8.00;99.90
16625;DHT22;8426;48.496;9.098;2023-04-16T11:51:00;8.00;99.90
16625;DHT22;8426;48.496;9.098;2023-04-16T11:56:04;8.20;99.90
16625;DHT22;8426;48.496;9.098;2023-04-16T12:01:08;8.30;99.90
16625;DHT22;8426;48.496;9.098;2023-04-16T12:06:13;8.40;99.90
16625;DHT22;8426;48.496;9.098;2023-04-16T12:11:17;8.70;99.90
16625;DHT22;8426;48.496;9.098;2023-04-16T12:16:22;8.90;99.90
16625;DHT22;8426;48.496;9.098;2023-04-16T12:21:39;8.80;99.90
16625;DHT22;8426;48.496;9.098;2023-04-16T12:26:44;9.00;99.90
16625;DHT22;8426;48.496;9.098;2023-04-16T12:31:49;9.20;99.90
16625;DHT22;8426;48.496;9.098;2023-04-16T12:37:06;9.00;99.90
16625;DHT22;8426;48.496;9.098;2023-04-16T12:42:12;9.10;99.90
16625;DHT22;8426;48.496;9.098;2023-04-16T12:47:20;9.10;99.90
16625;DHT22;8426;48.496;9.098;2023-04-16T12:52:28;9.40;99.90
16625;DHT22;8426;48.496;9.098;2023-04-16T12:57:32;9.70;99.90
16625;DHT22;8426;48.496;9.098;2023-04-16T13:02:38;9.80;99.90
16625;DHT22;8426;48.496;9.098;2023-04-16T13:07:44;9.60;99.90
16625;DHT22;8426;48.496;9.098;2023-04-16T13:12:48;9.80;99.90
16625;DHT22;8426;48.496;9.098;2023-04-16T13:17:51;9.70;99.90
16625;DHT22;8426;48.496;9.098;2023-04-16T13:22:56;9.50;99.90
16625;DHT22;8426;48.496;9.098;2023-04-16T13:28:00;9.50;99.90
16625;DHT22;8426;48.496;9.098;2023-04-16T13:33:03;9.40;99.90
16625;DHT22;8426;48.496;9.098;2023-04-16T13:38:08;9.20;99.90
16625;DHT22;8426;48.496;9.098;2023-04-16T13:43:13;9.00;99.90
16625;DHT22;8426;48.496;9.098;2023-04-16T13:48:19;9.00;99.90
16625;DHT22;8426;48.496;9.098;2023-04-16T13:53:25;9.00;99.90
16625;DHT22;8426;48.496;9.098;2023-04-16T13:58:28;9.10;99.90
16625;DHT22;8426;48.496;9.098;2023-04-16T14:03:33;9.20;99.90
16625;DHT22;8426;48.496;9.098;2023-04-16T14:08:38;9.10;99.90
16625;DHT22;8426;48.496;9.098;2023-04-16T14:13:42;9.00;99.90
16625;DHT22;8426;48.496;9.098;2023-04-16T14:18:46;8.90;99.90
16625;DHT22;8426;48.496;9.098;2023-04-16T14:23:51;8.80;99.90
16625;DHT22;8426;48.496;9.098;2023-04-16T14:28:56;8.70;99.90
16625;DHT22;8426;48.496;9.098;2023-04-16T14:34:00;8.60;99.90
16625;DHT22;8426;48.496;9.098;2023-04-16T14:39:06;8.70;99.90
16625;DHT22;8426;48.496;9.098;2023-04-16T14:44:10;8.80;99.90
16625;DHT22;8426;48.496;9.098;2023-04-16T14:49:15;8.70;99.90
16625;DHT22;8426;48.496;9.098;2023-04-16T14:54:21;8.60;99.90
16625;DHT22;8426;48.496;9.098;2023-04-16T14:59:28;8.60;99.90
16625;DHT22;8426;48.496;9.098;2023-04-16T15:04:32;8.50;99.90
16625;DHT22;8426;48.496;9.098;2023-04-16T15:09:38;8.40;99.90
16625;DHT22;8426;48.496;9.098;2023-04-16T15:14:41;8.30;99.90
16625;DHT22;8426;48.496;9.098;2023-04-16T15:19:45;8.20;99.90
16625;DHT22;8426;48.496;9.098;2023-04-16T15:24:50;8.20;99.90
16625;DHT22;8426;48.496;9.098;2023-04-16T15:29:55;8.30;99.90
16625;DHT22;8426;48.496;9.098;2023-04-16T15:34:58;8.30;99.90
16625;DHT22;8426;48.496;9.098;2023-04-16T15:40:04;8.40;99.90
16625;DHT22;8426;48.496;9.098;2023-04-16T15:45:14;8.30;99.90
16625;DHT22;8426;48.496;9.098;2023-04-16T15:50:19;8.30;99.90
16625;DHT22;8426;48.496;9.098;2023-04-16T15:55:24;8.20;99.90
16625;DHT22;8426;48.496;9.098;2023-04-16T16:00:29;8.20;99.90
16625;DHT22;8426;48.496;9.098;2023-04-16T16:05:33;8.10;99.90
16625;DHT22;8426;48.496;9.098;2023-04-16T16:10:38;8.00;99.90
16625;DHT22;8426;48.496;9.098;2023-04-16T16:15:42;8.00;99.90
16625;DHT22;8426;48.496;9.098;2023-04-16T16:20:49;8.00;99.90
16625;DHT22;8426;48.496;9.098;2023-04-16T16:25:55;8.00;99.90
16625;DHT22;8426;48.496;9.098;2023-04-16T16:30:59;8.00;99.90
16625;DHT22;8426;48.496;9.098;2023-04-16T16:36:03;8.10;99.90
16625;DHT22;8426;48.496;9.098;2023-04-16T16:41:08;8.10;99.90
16625;DHT22;8426;48.496;9.098;2023-04-16T16:46:16;8.10;99.90
16625;DHT22;8426;48.496;9.098;2023-04-16T16:51:19;8.10;99.90
16625;DHT22;8426;48.496;9.098;2023-04-16T16:56:24;8.10;99.90
16625;DHT22;8426;48.496;9.098;2023-04-16T17:01:28;8.10;99.90
16625;DHT22;8426;48.496;9.098;2023-04-16T17:06:32;8.00;99.90
16625;DHT22;8426;48.496;9.098;2023-04-16T17:11:37;8.00;99.90
16625;DHT22;8426;48.496;9.098;2023-04-16T17:16:41;7.90;99.90
16625;DHT22;8426;48.496;9.098;2023-04-16T17:21:47;7.90;99.90
16625;DHT22;8426;48.496;9.098;2023-04-16T17:26:53;7.90;99.90
16625;DHT22;8426;48.496;9.098;2023-04-16T17:31:57;7.90;99.90
16625;DHT22;8426;48.496;9.098;2023-04-16T17:37:02;7.80;99.90
16625;DHT22;8426;48.496;9.098;2023-04-16T17:42:07;7.80;99.90
16625;DHT22;8426;48.496;9.098;2023-04-16T17:47:10;7.80;99.90
16625;DHT22;8426;48.496;9.098;2023-04-16T17:52:13;7.80;99.90
16625;DHT22;8426;48.496;9.098;2023-04-16T17:57:18;7.80;99.90
16625;DHT22;8426;48.496;9.098;2023-04-16T18:02:22;7.70;99.90
16625;DHT22;8426;48.496;9.098;2023-04-16T18:07:26;7.70;99.90
16625;DHT22;8426;48.496;9.098;2023-04-16T18:12:31;7.70;99.90
16625;DHT22;8426;48.496;9.098;2023-04-16T18:17:34;7.80;99.90
16625;DHT22;8426;48.496;9.098;2023-04-16T18:22:38;7.80;99.90
16625;DHT22;8426;48.496;9.098;2023-04-16T18:27:44;7.70;99.90
16625;DHT22;8426;48.496;9.098;2023-04-16T18:32:52;7.80;99.90
16625;DHT22;8426;48.496;9.098;2023-04-16T18:38:18;7.70;99.90
16625;DHT22;8426;48.496;9.098;2023-04-16T18:43:27;7.70;99.90
16625;DHT22;8426;48.496;9.098;2023-04-16T18:48:32;7.70;99.90
16625;DHT22;8426;48.496;9.098;2023-04-16T18:53:44;7.70;99.90
16625;DHT22;8426;48.496;9.098;2023-04-16T18:58:49;7.70;99.90
16625;DHT22;8426;48.496;9.098;2023-04-16T19:03:56;7.70;99.90
16625;DHT22;8426;48.496;9.098;2023-04-16T19:09:00;7.70;99.90
16625;DHT22;8426;48.496;9.098;2023-04-16T19:14:05;7.70;99.90
16625;DHT22;8426;48.496;9.098;2023-04-16T19:19:12;7.60;99.90
16625;DHT22;8426;48.496;9.098;2023-04-16T19:24:16;7.60;99.90
16625;DHT22;8426;48.496;9.098;2023-04-16T19:29:23;7.60;99.90
16625;DHT22;8426;48.496;9.098;2023-04-16T19:34:32;7.60;99.90
16625;DHT22;8426;48.496;9.098;2023-04-16T19:39:36;7.60;99.90
16625;DHT22;8426;48.496;9.098;2023-04-16T19:44:51;7.60;99.90
16625;DHT22;8426;48.496;9.098;2023-04-16T19:49:55;7.60;99.90
16625;DHT22;8426;48.496;9.098;2023-04-16T19:55:02;7.60;99.90
16625;DHT22;8426;48.496;9.098;2023-04-16T20:00:08;7.60;99.90
16625;DHT22;8426;48.496;9.098;2023-04-16T20:05:19;7.60;99.90
16625;DHT22;8426;48.496;9.098;2023-04-16T20:10:25;7.60;99.90
16625;DHT22;8426;48.496;9.098;2023-04-16T20:15:30;7.60;99.90
16625;DHT22;8426;48.496;9.098;2023-04-16T20:20:34;7.60;99.90
16625;DHT22;8426;48.496;9.098;2023-04-16T20:25:40;7.60;99.90
16625;DHT22;8426;48.496;9.098;2023-04-16T20:30:49;7.60;99.90
16625;DHT22;8426;48.496;9.098;2023-04-16T20:35:55;7.60;99.90
16625;DHT22;8426;48.496;9.098;2023-04-16T20:40:59;7.60;99.90
16625;DHT22;8426;48.496;9.098;2023-04-16T20:46:13;7.60;99.90
16625;DHT22;8426;48.496;9.098;2023-04-16T20:51:17;7.60;99.90
16625;DHT22;8426;48.496;9.098;2023-04-16T20:56:20;7.60;99.90
16625;DHT22;8426;48.496;9.098;2023-04-16T21:01:25;7.50;99.90
16625;DHT22;8426;48.496;9.098;2023-04-16T21:06:29;7.50;99.90
16625;DHT22;8426;48.496;9.098;2023-04-16T21:11:40;7.50;99.90
16625;DHT22;8426;48.496;9.098;2023-04-16T21:16:49;7.50;99.90
16625;DHT22;8426;48.496;9.098;2023-04-16T21:21:54;7.50;99.90
16625;DHT22;8426;48.496;9.098;2023-04-16T21:26:58;7.40;99.90
16625;DHT22;8426;48.496;9.098;2023-04-16T21:32:04;7.50;99.90
16625;DHT22;8426;48.496;9.098;2023-04-16T21:37:15;7.50;99.90
16625;DHT22;8426;48.496;9.098;2023-04-16T21:42:22;7.50;99.90
16625;DHT22;8426;48.496;9.098;2023-04-16T21:47:27;7.40;99.90
16625;DHT22;8426;48.496;9.098;2023-04-16T21:52:31;7.40;99.90
16625;DHT22;8426;48.496;9.098;2023-04-16T21:57:40;7.40;99.90
16625;DHT22;8426;48.496;9.098;2023-04-16T22:02:45;7.50;99.90
16625;DHT22;8426;48.496;9.098;2023-04-16T22:07:51;7.50;99.90
16625;DHT22;8426;48.496;9.098;2023-04-16T22:12:54;7.50;99.90
16625;DHT22;8426;48.496;9.098;2023-04-16T22:18:04;7.40;99.90
16625;DHT22;8426;48.496;9.098;2023-04-16T22:23:07;7.40;99.90
16625;DHT22;8426;48.496;9.098;2023-04-16T22:28:11;7.40;99.90
16625;DHT22;8426;48.496;9.098;2023-04-16T22:33:16;7.40;99.90
16625;DHT22;8426;48.496;9.098;2023-04-16T22:38:19;7.40;99.90
16625;DHT22;8426;48.496;9.098;2023-04-16T22:43:31;7.40;99.90
16625;DHT22;8426;48.496;9.098;2023-04-16T22:48:38;7.40;99.90
16625;DHT22;8426;48.496;9.098;2023-04-16T22:53:43;7.40;99.90
16625;DHT22;8426;48.496;9.098;2023-04-16T22:58:49;7.40;99.90
16625;DHT22;8426;48.496;9.098;2023-04-16T23:03:57;7.40;99.90
16625;DHT22;8426;48.496;9.098;2023-04-16T23:09:01;7.40;99.90
16625;DHT22;8426;48.496;9.098;2023-04-16T23:14:06;7.40;99.90
16625;DHT22;8426;48.496;9.098;2023-04-16T23:19:12;7.30;99.90
16625;DHT22;8426;48.496;9.098;2023-04-16T23:24:18;7.30;99.90
16625;DHT22;8426;48.496;9.098;2023-04-16T23:29:24;7.30;99.90
16625;DHT22;8426;48.496;9.098;2023-04-16T23:34:29;7.30;99.90
16625;DHT22;8426;48.496;9.098;2023-04-16T23:39:32;7.30;99.90
16625;DHT22;8426;48.496;9.098;2023-04-16T23:44:36;7.30;99.90
16625;DHT22;8426;48.496;9.098;2023-04-16T23:49:45;7.20;99.90
16625;DHT22;8426;48.496;9.098;2023-04-16T23:54:48;7.20;99.90
16625;DHT22;8426;48.496;9.098;2023-04-16T23:59:53;7.20;99.90
